createdAt,value
2022-07-29T00:00:24.540Z,14.52
2022-07-29T00:04:43.443Z,14.44
2022-07-29T00:08:51.736Z,14.40
2022-07-29T00:13:00.973Z,14.37
2022-07-29T00:17:09.674Z,14.34
2022-07-29T00:21:17.906Z,14.27
2022-07-29T00:25:25.544Z,14.19
2022-07-29T00:29:34.726Z,14.08
2022-07-29T00:33:43.255Z,14.01
2022-07-29T00:37:51.398Z,13.94
2022-07-29T00:41:58.848Z,13.88
2022-07-29T00:46:06.849Z,13.91
2022-07-29T00:50:16.767Z,13.95
2022-07-29T00:54:24.478Z,13.95
2022-07-29T00:58:32.708Z,14.02
2022-07-29T01:02:40.853Z,14.06
2022-07-29T01:06:48.729Z,14.05
2022-07-29T01:10:57.496Z,14.11
2022-07-29T01:15:08.878Z,14.16
2022-07-29T01:19:34.099Z,14.19
2022-07-29T01:23:56.463Z,14.23
2022-07-29T01:28:17.544Z,14.25
2022-07-29T01:32:30.033Z,14.21
2022-07-29T01:36:42.025Z,14.22
2022-07-29T01:40:54.189Z,14.19
2022-07-29T01:45:05.354Z,14.12
2022-07-29T01:49:16.154Z,14.06
2022-07-29T01:53:37.775Z,14.06
2022-07-29T01:57:49.096Z,13.98
2022-07-29T02:01:59.973Z,13.93
2022-07-29T02:06:08.679Z,13.76
2022-07-29T02:10:17.446Z,13.66
2022-07-29T02:14:26.639Z,13.56
2022-07-29T02:18:34.720Z,13.48
2022-07-29T02:22:43.721Z,13.43
2022-07-29T02:26:54.479Z,13.47
2022-07-29T02:31:03.562Z,13.47
2022-07-29T02:35:12.705Z,13.44
2022-07-29T02:39:21.252Z,13.38
2022-07-29T02:43:30.033Z,13.35
2022-07-29T02:47:42.327Z,13.34
2022-07-29T02:51:53.981Z,13.35
2022-07-29T02:56:04.443Z,13.37
2022-07-29T03:00:14.627Z,13.35
2022-07-29T03:04:23.970Z,13.36
2022-07-29T03:08:32.197Z,13.33
2022-07-29T03:12:40.023Z,13.32
2022-07-29T03:16:47.841Z,13.30
2022-07-29T03:20:55.444Z,13.32
2022-07-29T03:25:12.205Z,13.36
2022-07-29T03:29:21.070Z,13.41
2022-07-29T03:33:31.545Z,13.44
2022-07-29T03:37:38.816Z,13.45
2022-07-29T03:41:47.455Z,13.41
2022-07-29T03:45:57.089Z,13.42
2022-07-29T03:50:10.753Z,13.45
2022-07-29T03:54:21.425Z,13.47
2022-07-29T03:58:30.813Z,13.52
2022-07-29T04:02:41.166Z,13.57
2022-07-29T04:06:49.862Z,13.64
2022-07-29T04:10:57.681Z,13.72
2022-07-29T04:15:05.698Z,13.77
2022-07-29T04:19:13.399Z,13.86
2022-07-29T04:23:20.661Z,14.01
2022-07-29T04:27:28.195Z,14.17
2022-07-29T04:31:35.983Z,14.37
2022-07-29T04:35:49.933Z,14.57
2022-07-29T04:39:58.660Z,14.80
2022-07-29T04:44:07.442Z,15.04
2022-07-29T04:48:16.784Z,15.28
2022-07-29T04:52:24.594Z,15.50
2022-07-29T04:56:33.168Z,15.71
2022-07-29T05:00:41.216Z,15.91
2022-07-29T05:04:49.385Z,16.07
2022-07-29T05:08:57.355Z,16.22
2022-07-29T05:13:05.284Z,16.35
2022-07-29T05:17:13.031Z,16.44
2022-07-29T05:21:20.519Z,16.50
2022-07-29T05:25:44.367Z,16.58
2022-07-29T05:29:52.639Z,16.75
2022-07-29T05:33:59.735Z,16.95
2022-07-29T05:38:07.383Z,17.08
2022-07-29T05:42:17.926Z,17.23
2022-07-29T05:46:30.189Z,17.48
2022-07-29T05:50:44.274Z,17.70
2022-07-29T05:54:59.939Z,17.89
2022-07-29T05:59:17.937Z,18.03
2022-07-29T06:03:26.649Z,18.24
2022-07-29T06:07:36.546Z,18.50
2022-07-29T06:11:49.718Z,18.84
2022-07-29T06:15:57.726Z,19.18
2022-07-29T06:20:15.318Z,19.49
2022-07-29T06:24:23.624Z,19.69
2022-07-29T06:28:31.257Z,19.83
2022-07-29T06:32:43.442Z,19.96
2022-07-29T06:36:55.567Z,20.01
2022-07-29T06:41:08.994Z,20.11
2022-07-29T06:45:23.455Z,20.22
2022-07-29T06:49:38.393Z,20.25
2022-07-29T06:54:00.441Z,20.24
2022-07-29T06:58:11.379Z,20.26
2022-07-29T07:02:20.827Z,20.39
2022-07-29T07:06:28.757Z,20.62
2022-07-29T07:10:52.518Z,20.91
2022-07-29T07:15:04.422Z,21.11
2022-07-29T07:19:20.913Z,21.28
2022-07-29T07:23:33.402Z,21.40
2022-07-29T07:27:47.120Z,21.47
2022-07-29T07:32:00.495Z,21.49
2022-07-29T07:36:11.698Z,21.47
2022-07-29T07:40:23.064Z,21.45
2022-07-29T07:44:30.483Z,21.47
2022-07-29T07:48:39.064Z,21.44
2022-07-29T07:52:55.994Z,21.41
2022-07-29T07:57:04.015Z,21.45
2022-07-29T08:01:13.009Z,21.52
2022-07-29T08:05:24.696Z,21.69
2022-07-29T08:09:36.878Z,21.97
2022-07-29T08:13:44.607Z,22.16
2022-07-29T08:17:53.048Z,22.22
2022-07-29T08:22:00.419Z,22.27
2022-07-29T08:26:11.749Z,22.35
2022-07-29T08:30:19.127Z,22.48
2022-07-29T08:34:29.689Z,22.75
2022-07-29T08:38:38.240Z,23.13
2022-07-29T08:42:46.056Z,23.34
2022-07-29T08:46:58.406Z,23.50
2022-07-29T08:51:24.695Z,23.56
2022-07-29T08:55:39.686Z,23.70
2022-07-29T08:59:55.354Z,23.89
2022-07-29T09:04:06.093Z,24.00
2022-07-29T09:08:19.590Z,23.98
2022-07-29T09:12:38.069Z,23.90
2022-07-29T09:17:04.353Z,23.84
2022-07-29T09:21:39.092Z,23.97
2022-07-29T09:25:52.594Z,24.18
2022-07-29T09:30:13.469Z,24.35
2022-07-29T09:34:27.441Z,24.60
2022-07-29T09:38:36.440Z,24.95
2022-07-29T09:42:45.949Z,25.27
2022-07-29T09:47:08.239Z,25.53
2022-07-29T09:51:37.893Z,25.78
2022-07-29T09:55:52.834Z,26.06
2022-07-29T10:00:10.936Z,26.30
2022-07-29T10:04:23.843Z,26.39
2022-07-29T10:08:37.719Z,26.42
2022-07-29T10:12:56.521Z,26.44
2022-07-29T10:17:08.621Z,26.48
2022-07-29T10:21:34.918Z,26.58
2022-07-29T10:25:46.596Z,26.74
2022-07-29T10:30:04.456Z,26.71
2022-07-29T10:34:22.113Z,26.75
2022-07-29T10:43:20.346Z,26.93
2022-07-29T10:47:31.427Z,26.90
2022-07-29T10:51:58.155Z,26.87
2022-07-29T10:56:13.436Z,26.93
2022-07-29T11:00:33.269Z,26.99
2022-07-29T11:05:05.084Z,27.03
2022-07-29T11:09:25.727Z,27.11
2022-07-29T11:13:53.152Z,27.22
2022-07-29T11:18:17.619Z,27.27
2022-07-29T11:22:45.917Z,27.23
2022-07-29T11:27:23.191Z,27.15
2022-07-29T11:31:44.028Z,27.14
2022-07-29T11:36:16.572Z,27.16
2022-07-29T11:40:24.697Z,27.19
2022-07-29T11:44:58.347Z,27.27
2022-07-29T11:49:12.714Z,27.42
2022-07-29T11:53:25.315Z,27.39
2022-07-29T11:57:37.988Z,27.40
2022-07-29T12:02:33.255Z,27.48
2022-07-29T12:06:26.493Z,27.51
2022-07-29T12:10:38.576Z,27.58
2022-07-29T12:14:49.979Z,27.61
2022-07-29T12:19:07.110Z,27.64
2022-07-29T12:23:23.959Z,27.58
2022-07-29T12:27:40.531Z,27.68
2022-07-29T12:31:48.869Z,27.77
2022-07-29T12:36:06.760Z,27.84
2022-07-29T12:40:18.613Z,27.83
2022-07-29T12:44:27.599Z,27.84
2022-07-29T12:48:39.862Z,27.92
2022-07-29T12:52:50.700Z,28.03
2022-07-29T12:57:05.262Z,28.20
2022-07-29T13:01:17.064Z,28.20
2022-07-29T13:05:26.434Z,28.16
2022-07-29T13:09:42.169Z,28.08
2022-07-29T13:14:07.034Z,28.01
2022-07-29T13:18:31.104Z,28.06
2022-07-29T13:22:40.091Z,28.18
2022-07-29T13:26:53.091Z,28.07
2022-07-29T13:31:02.818Z,27.92
2022-07-29T13:35:15.958Z,27.88
2022-07-29T13:39:25.051Z,27.83
2022-07-29T13:43:32.295Z,27.79
2022-07-29T13:47:41.017Z,27.85
2022-07-29T13:51:51.861Z,27.88
2022-07-29T13:55:59.835Z,28.02
2022-07-29T14:00:12.233Z,28.15
2022-07-29T14:04:19.915Z,28.27
2022-07-29T14:08:28.754Z,28.38
2022-07-29T14:12:36.134Z,28.44
2022-07-29T14:16:47.759Z,28.38
2022-07-29T14:20:58.477Z,28.31
2022-07-29T14:25:14.671Z,28.28
2022-07-29T14:29:37.016Z,28.28
2022-07-29T14:33:49.138Z,28.26
2022-07-29T14:37:58.615Z,28.25
2022-07-29T14:42:07.243Z,28.23
2022-07-29T14:46:15.400Z,28.08
2022-07-29T14:50:29.914Z,27.97
2022-07-29T14:54:39.619Z,27.87
2022-07-29T14:58:51.626Z,27.83
2022-07-29T15:03:02.389Z,27.79
2022-07-29T15:07:13.123Z,27.72
2022-07-29T15:11:21.385Z,27.72
2022-07-29T15:15:28.984Z,27.84
2022-07-29T15:19:37.002Z,28.00
2022-07-29T15:23:45.182Z,27.97
2022-07-29T15:27:54.798Z,27.82
2022-07-29T15:32:06.212Z,27.64
2022-07-29T15:36:35.629Z,27.59
2022-07-29T15:40:44.686Z,27.52
2022-07-29T15:44:52.671Z,27.40
2022-07-29T15:49:00.566Z,27.29
2022-07-29T15:53:09.167Z,27.24
2022-07-29T15:57:19.143Z,27.26
2022-07-29T16:01:27.521Z,27.38
2022-07-29T16:05:36.279Z,27.65
2022-07-29T16:09:49.488Z,27.76
2022-07-29T16:14:00.325Z,27.78
2022-07-29T16:18:09.150Z,27.78
2022-07-29T16:22:17.307Z,27.79
2022-07-29T16:26:24.930Z,27.73
2022-07-29T16:30:34.372Z,27.68
2022-07-29T16:34:41.933Z,27.80
2022-07-29T16:38:49.748Z,27.75
2022-07-29T16:42:57.700Z,27.71
2022-07-29T16:47:05.279Z,27.62
2022-07-29T16:51:14.448Z,27.47
2022-07-29T16:55:23.048Z,27.26
2022-07-29T16:59:31.203Z,27.08
2022-07-29T17:04:00.346Z,26.93
2022-07-29T17:08:08.705Z,26.85
2022-07-29T17:12:17.654Z,26.88
2022-07-29T17:16:25.337Z,26.85
2022-07-29T17:20:36.749Z,26.82
2022-07-29T17:24:45.786Z,26.74
2022-07-29T17:28:53.485Z,26.69
2022-07-29T17:33:01.133Z,26.60
2022-07-29T17:37:11.364Z,26.45
2022-07-29T17:41:19.205Z,26.42
2022-07-29T17:45:49.349Z,26.42
2022-07-29T17:49:56.581Z,26.38
2022-07-29T17:54:03.985Z,26.39
2022-07-29T17:58:12.829Z,26.33
2022-07-29T18:02:20.825Z,26.38
2022-07-29T18:06:28.598Z,26.38
2022-07-29T18:10:36.903Z,26.31
2022-07-29T18:14:49.915Z,26.12
2022-07-29T18:18:57.438Z,25.91
2022-07-29T18:23:05.548Z,25.71
2022-07-29T18:27:13.088Z,25.53
2022-07-29T18:31:24.536Z,25.31
2022-07-29T18:35:31.980Z,25.14
2022-07-29T18:39:40.350Z,24.99
2022-07-29T18:43:48.081Z,24.84
2022-07-29T18:47:55.807Z,24.68
2022-07-29T18:52:03.566Z,24.44
2022-07-29T18:56:11.355Z,24.27
2022-07-29T19:00:19.979Z,24.15
2022-07-29T19:04:29.800Z,24.09
2022-07-29T19:08:37.412Z,23.96
2022-07-29T19:12:44.959Z,23.82
2022-07-29T19:16:52.662Z,23.69
2022-07-29T19:21:00.740Z,23.59
2022-07-29T19:25:11.239Z,23.58
2022-07-29T19:29:19.124Z,23.55
2022-07-29T19:33:26.911Z,23.42
2022-07-29T19:37:34.926Z,23.32
2022-07-29T19:41:42.649Z,23.24
2022-07-29T19:45:50.446Z,23.11
2022-07-29T19:49:58.277Z,22.95
2022-07-29T19:54:06.631Z,22.85
2022-07-29T19:58:16.153Z,22.79
2022-07-29T20:02:24.597Z,22.62
2022-07-29T20:06:32.628Z,22.43
2022-07-29T20:10:40.513Z,22.31
2022-07-29T20:14:48.551Z,22.29
2022-07-29T20:21:17.462Z,22.37
2022-07-29T20:25:25.496Z,22.34
2022-07-29T20:29:33.321Z,22.20
2022-07-29T20:33:40.931Z,22.06
2022-07-29T20:37:52.388Z,21.94
2022-07-29T20:42:03.428Z,21.83
2022-07-29T20:46:11.651Z,21.70
2022-07-29T20:50:20.739Z,21.63
2022-07-29T20:54:31.697Z,21.57
2022-07-29T20:58:39.738Z,21.52
2022-07-29T21:02:48.032Z,21.42
2022-07-29T21:06:55.591Z,21.31
2022-07-29T21:11:03.974Z,21.17
2022-07-29T21:15:13.912Z,21.06
2022-07-29T21:19:21.860Z,20.98
2022-07-29T21:23:30.412Z,20.94
2022-07-29T21:27:55.356Z,20.92
2022-07-29T21:32:07.126Z,20.87
2022-07-29T21:36:46.493Z,20.80
2022-07-29T21:40:46.602Z,20.73
2022-07-29T21:44:54.250Z,20.61
2022-07-29T21:49:01.961Z,20.39
2022-07-29T21:53:11.105Z,20.27
2022-07-29T21:57:21.759Z,20.18
2022-07-29T22:01:29.592Z,20.07
2022-07-29T22:05:48.844Z,19.90
2022-07-29T22:09:56.296Z,19.82
2022-07-29T22:14:04.108Z,19.74
2022-07-29T22:18:11.560Z,19.66
2022-07-29T22:22:19.696Z,19.53
2022-07-29T22:26:28.088Z,19.33
2022-07-29T22:30:36.124Z,19.10
2022-07-29T22:34:43.845Z,19.07
2022-07-29T22:38:52.088Z,19.06
2022-07-29T22:43:00.078Z,18.91
2022-07-29T22:47:08.788Z,18.77
2022-07-29T22:51:16.391Z,18.74
2022-07-29T22:55:24.353Z,18.73
2022-07-29T22:59:31.993Z,18.73
2022-07-29T23:03:39.589Z,18.63
2022-07-29T23:07:47.253Z,18.52
2022-07-29T23:11:54.986Z,18.49
2022-07-29T23:16:03.663Z,18.47
2022-07-29T23:20:14.670Z,18.45
2022-07-29T23:24:22.688Z,18.44
2022-07-29T23:28:30.892Z,18.37
2022-07-29T23:32:39.720Z,18.32
2022-07-29T23:36:47.636Z,18.29
2022-07-29T23:40:55.175Z,18.29
2022-07-29T23:45:02.784Z,18.32
2022-07-29T23:49:10.608Z,18.32
2022-07-29T23:53:19.594Z,18.32
2022-07-29T23:57:29.545Z,18.32
